This is the latest recevied weather packets stored in our database for station/object 5B4APJ-13. If no packets are shown the sender has not sent any weather packets the latest 10 day(s).
| Time | Temp. | Humidity | Pressure | Rain* | Wind** | Luminosity | Snow |
|---|---|---|---|---|---|---|---|
| 1777546928 | 25.56° C | 42% | 1015.1 hPa | 0 mm | 1.79 m/s, 143° | 804 W/m² | - |
| 1777546628 | 24.44° C | 42% | 1015.2 hPa | 0 mm | 1.34 m/s, 243° | 812 W/m² | - |
| 1777546329 | 25° C | 40% | 1015.1 hPa | 0 mm | 3.58 m/s, 88° | 814 W/m² | - |
| 1777546030 | 25° C | 39% | 1015.6 hPa | 0 mm | 2.68 m/s, 124° | 821 W/m² | - |
| 1777545728 | 24.44° C | 44% | 1015.6 hPa | 0 mm | 1.79 m/s, 247° | 831 W/m² | - |
| 1777545428 | 23.89° C | 45% | 1015.3 hPa | 0 mm | 3.13 m/s, 213° | 825 W/m² | - |
| 1777545129 | 23.89° C | 40% | 1015.7 hPa | 0 mm | 3.13 m/s, 195° | 831 W/m² | - |
| 1777544828 | 24.44° C | 46% | 1015.5 hPa | 0 mm | 4.02 m/s, 113° | 831 W/m² | - |
| 1777544529 | 23.89° C | 46% | 1015.7 hPa | 0 mm | 2.68 m/s, 105° | 840 W/m² | - |
| 1777544228 | 23.89° C | 47% | 1015.7 hPa | 0 mm | 2.68 m/s, 85° | 840 W/m² | - |
| 1777543928 | 23.33° C | 48% | 1015.7 hPa | 0 mm | 1.79 m/s, 183° | 844 W/m² | - |
| 1777543629 | 23.89° C | 48% | 1015.6 hPa | 0 mm | 1.79 m/s, 123° | 839 W/m² | - |
| 1777543328 | 23.89° C | 48% | 1015.7 hPa | 0 mm | 4.47 m/s, 94° | 840 W/m² | - |
| 1777543028 | 23.33° C | 44% | 1015.9 hPa | 0 mm | 1.79 m/s, 230° | 843 W/m² | - |
| 1777542728 | 22.78° C | 53% | 1015.9 hPa | 0 mm | 1.79 m/s, 133° | 845 W/m² | - |
| 1777542428 | 23.33° C | 51% | 1016 hPa | 0 mm | 4.02 m/s, 108° | 851 W/m² | - |
| 1777542128 | 23.33° C | 53% | 1016 hPa | 0 mm | 4.02 m/s, 115° | 840 W/m² | - |
| 1777541828 | 22.78° C | 55% | 1015.9 hPa | 0 mm | 1.34 m/s, 217° | 849 W/m² | - |
| 1777541528 | 23.33° C | 55% | 1016.2 hPa | 0 mm | 4.02 m/s, 101° | 837 W/m² | - |
| 1777541228 | 22.78° C | 55% | 1016 hPa | 0 mm | 1.34 m/s, 103° | 853 W/m² | - |
| 1777540928 | 22.78° C | 54% | 1016.3 hPa | 0 mm | 1.79 m/s, 159° | 839 W/m² | - |
| 1777540628 | 22.22° C | 60% | 1016.1 hPa | 0 mm | 1.34 m/s, 101° | 811 W/m² | - |
| 1777540328 | 21.67° C | 60% | 1016.3 hPa | 0 mm | 1.79 m/s, 59° | 832 W/m² | - |
| 1777540028 | 21.67° C | 59% | 1016.2 hPa | 0 mm | 4.47 m/s, 112° | 826 W/m² | - |
| 1777539728 | 22.78° C | 57% | 1016.3 hPa | 0 mm | 4.02 m/s, 106° | 825 W/m² | - |
* Rain latest hour (hover to see other rain measurements)
** Current wind speed in m/s (hover to see current wind gust speed)